sensor_id;sensor_type;location;lat;lon;timestamp;P1;durP1;ratioP1;P2;durP2;ratioP2
10471;SDS011;5283;48.876;8.962;2022-11-20T00:01:27;109.83;;;26.07;;
10471;SDS011;5283;48.876;8.962;2022-11-20T00:03:55;117.33;;;24.23;;
10471;SDS011;5283;48.876;8.962;2022-11-20T00:06:24;67.40;;;22.30;;
10471;SDS011;5283;48.876;8.962;2022-11-20T00:08:53;127.10;;;24.07;;
10471;SDS011;5283;48.876;8.962;2022-11-20T00:11:22;134.40;;;23.77;;
10471;SDS011;5283;48.876;8.962;2022-11-20T00:13:52;72.83;;;21.37;;
10471;SDS011;5283;48.876;8.962;2022-11-20T00:16:22;74.93;;;20.67;;
10471;SDS011;5283;48.876;8.962;2022-11-20T00:18:50;59.70;;;21.13;;
10471;SDS011;5283;48.876;8.962;2022-11-20T00:21:21;45.27;;;21.60;;
10471;SDS011;5283;48.876;8.962;2022-11-20T00:23:53;49.37;;;20.23;;
10471;SDS011;5283;48.876;8.962;2022-11-20T00:26:21;52.23;;;21.70;;
10471;SDS011;5283;48.876;8.962;2022-11-20T00:28:51;45.37;;;21.03;;
10471;SDS011;5283;48.876;8.962;2022-11-20T00:31:22;92.17;;;22.77;;
10471;SDS011;5283;48.876;8.962;2022-11-20T00:33:49;119.00;;;22.60;;
10471;SDS011;5283;48.876;8.962;2022-11-20T00:36:17;102.47;;;22.10;;
10471;SDS011;5283;48.876;8.962;2022-11-20T00:38:45;149.77;;;21.13;;
10471;SDS011;5283;48.876;8.962;2022-11-20T00:41:13;131.63;;;20.43;;
10471;SDS011;5283;48.876;8.962;2022-11-20T00:43:41;66.77;;;19.07;;
10471;SDS011;5283;48.876;8.962;2022-11-20T00:46:09;42.93;;;17.33;;
10471;SDS011;5283;48.876;8.962;2022-11-20T00:48:38;61.80;;;19.20;;
10471;SDS011;5283;48.876;8.962;2022-11-20T00:51:05;110.57;;;21.40;;
10471;SDS011;5283;48.876;8.962;2022-11-20T00:53:31;103.00;;;22.30;;
10471;SDS011;5283;48.876;8.962;2022-11-20T00:56:05;92.87;;;20.67;;
10471;SDS011;5283;48.876;8.962;2022-11-20T00:58:34;129.60;;;23.03;;
10471;SDS011;5283;48.876;8.962;2022-11-20T01:03:37;183.07;;;23.23;;
10471;SDS011;5283;48.876;8.962;2022-11-20T01:08:37;310.70;;;25.40;;
10471;SDS011;5283;48.876;8.962;2022-11-20T01:11:05;239.17;;;23.90;;
10471;SDS011;5283;48.876;8.962;2022-11-20T01:13:34;152.50;;;21.33;;
10471;SDS011;5283;48.876;8.962;2022-11-20T01:16:12;195.33;;;24.37;;
10471;SDS011;5283;48.876;8.962;2022-11-20T01:18:46;151.27;;;22.00;;
10471;SDS011;5283;48.876;8.962;2022-11-20T01:21:24;61.60;;;19.40;;
10471;SDS011;5283;48.876;8.962;2022-11-20T01:23:53;178.93;;;26.40;;
10471;SDS011;5283;48.876;8.962;2022-11-20T01:26:21;133.90;;;23.57;;
10471;SDS011;5283;48.876;8.962;2022-11-20T01:28:49;227.47;;;25.50;;
10471;SDS011;5283;48.876;8.962;2022-11-20T01:31:21;205.37;;;26.50;;
10471;SDS011;5283;48.876;8.962;2022-11-20T01:33:56;172.93;;;25.97;;
10471;SDS011;5283;48.876;8.962;2022-11-20T01:36:26;153.80;;;27.30;;
10471;SDS011;5283;48.876;8.962;2022-11-20T01:38:55;166.60;;;25.10;;
10471;SDS011;5283;48.876;8.962;2022-11-20T01:41:27;148.87;;;25.97;;
10471;SDS011;5283;48.876;8.962;2022-11-20T01:44:15;113.97;;;24.23;;
10471;SDS011;5283;48.876;8.962;2022-11-20T01:46:52;80.00;;;22.67;;
10471;SDS011;5283;48.876;8.962;2022-11-20T01:49:30;41.97;;;19.90;;
10471;SDS011;5283;48.876;8.962;2022-11-20T01:52:03;38.27;;;18.63;;
10471;SDS011;5283;48.876;8.962;2022-11-20T01:54:43;31.97;;;17.50;;
10471;SDS011;5283;48.876;8.962;2022-11-20T01:57:15;32.03;;;17.90;;
10471;SDS011;5283;48.876;8.962;2022-11-20T01:59:44;26.60;;;15.70;;
10471;SDS011;5283;48.876;8.962;2022-11-20T02:02:15;26.37;;;15.73;;
10471;SDS011;5283;48.876;8.962;2022-11-20T02:04:42;21.97;;;14.03;;
10471;SDS011;5283;48.876;8.962;2022-11-20T02:07:09;25.10;;;15.37;;
10471;SDS011;5283;48.876;8.962;2022-11-20T02:09:36;38.70;;;19.87;;
10471;SDS011;5283;48.876;8.962;2022-11-20T02:12:03;30.50;;;18.37;;
10471;SDS011;5283;48.876;8.962;2022-11-20T02:14:30;26.60;;;17.87;;
10471;SDS011;5283;48.876;8.962;2022-11-20T02:16:57;26.97;;;16.47;;
10471;SDS011;5283;48.876;8.962;2022-11-20T02:19:28;25.87;;;15.90;;
10471;SDS011;5283;48.876;8.962;2022-11-20T02:22:07;24.43;;;14.23;;
10471;SDS011;5283;48.876;8.962;2022-11-20T02:24:39;21.23;;;13.87;;
10471;SDS011;5283;48.876;8.962;2022-11-20T02:27:08;20.57;;;13.80;;
10471;SDS011;5283;48.876;8.962;2022-11-20T02:29:39;23.87;;;15.53;;
10471;SDS011;5283;48.876;8.962;2022-11-20T02:32:23;25.87;;;16.20;;
10471;SDS011;5283;48.876;8.962;2022-11-20T02:34:52;22.60;;;14.30;;
10471;SDS011;5283;48.876;8.962;2022-11-20T02:37:19;22.63;;;14.50;;
10471;SDS011;5283;48.876;8.962;2022-11-20T02:39:47;21.00;;;13.67;;
10471;SDS011;5283;48.876;8.962;2022-11-20T02:42:16;18.33;;;12.60;;
10471;SDS011;5283;48.876;8.962;2022-11-20T02:44:43;18.43;;;12.33;;
10471;SDS011;5283;48.876;8.962;2022-11-20T02:47:09;18.70;;;11.50;;
10471;SDS011;5283;48.876;8.962;2022-11-20T02:49:36;16.53;;;9.93;;
10471;SDS011;5283;48.876;8.962;2022-11-20T02:52:03;13.53;;;9.60;;
10471;SDS011;5283;48.876;8.962;2022-11-20T02:54:30;11.90;;;8.77;;
10471;SDS011;5283;48.876;8.962;2022-11-20T02:56:57;12.87;;;8.23;;
10471;SDS011;5283;48.876;8.962;2022-11-20T02:59:24;14.37;;;7.83;;
10471;SDS011;5283;48.876;8.962;2022-11-20T03:01:50;8.60;;;6.53;;
10471;SDS011;5283;48.876;8.962;2022-11-20T03:04:17;10.43;;;6.67;;
10471;SDS011;5283;48.876;8.962;2022-11-20T03:06:44;10.13;;;6.47;;
10471;SDS011;5283;48.876;8.962;2022-11-20T03:09:10;8.87;;;6.57;;
10471;SDS011;5283;48.876;8.962;2022-11-20T03:11:37;7.57;;;5.83;;
10471;SDS011;5283;48.876;8.962;2022-11-20T03:14:04;9.70;;;5.97;;
10471;SDS011;5283;48.876;8.962;2022-11-20T03:16:31;8.43;;;6.00;;
10471;SDS011;5283;48.876;8.962;2022-11-20T03:18:59;8.23;;;5.90;;
10471;SDS011;5283;48.876;8.962;2022-11-20T03:21:26;6.87;;;5.80;;
10471;SDS011;5283;48.876;8.962;2022-11-20T03:23:53;7.37;;;5.93;;
10471;SDS011;5283;48.876;8.962;2022-11-20T03:26:21;8.27;;;6.30;;
10471;SDS011;5283;48.876;8.962;2022-11-20T03:28:51;10.33;;;5.87;;
10471;SDS011;5283;48.876;8.962;2022-11-20T03:31:23;8.47;;;5.60;;
10471;SDS011;5283;48.876;8.962;2022-11-20T03:33:52;9.20;;;6.10;;
10471;SDS011;5283;48.876;8.962;2022-11-20T03:36:19;8.30;;;5.80;;
10471;SDS011;5283;48.876;8.962;2022-11-20T03:38:47;9.07;;;6.20;;
10471;SDS011;5283;48.876;8.962;2022-11-20T03:41:18;8.90;;;6.10;;
10471;SDS011;5283;48.876;8.962;2022-11-20T03:43:50;10.47;;;5.90;;
10471;SDS011;5283;48.876;8.962;2022-11-20T03:46:19;9.07;;;6.07;;
10471;SDS011;5283;48.876;8.962;2022-11-20T03:48:46;7.80;;;6.13;;
10471;SDS011;5283;48.876;8.962;2022-11-20T03:51:18;8.57;;;5.83;;
10471;SDS011;5283;48.876;8.962;2022-11-20T03:53:46;9.43;;;6.50;;
10471;SDS011;5283;48.876;8.962;2022-11-20T03:56:15;9.73;;;6.43;;
10471;SDS011;5283;48.876;8.962;2022-11-20T03:58:43;10.17;;;7.20;;
10471;SDS011;5283;48.876;8.962;2022-11-20T04:01:11;8.57;;;6.57;;
10471;SDS011;5283;48.876;8.962;2022-11-20T04:03:40;8.57;;;6.70;;
10471;SDS011;5283;48.876;8.962;2022-11-20T04:06:09;10.63;;;5.97;;
10471;SDS011;5283;48.876;8.962;2022-11-20T04:08:47;11.30;;;6.33;;
10471;SDS011;5283;48.876;8.962;2022-11-20T04:11:18;7.40;;;6.30;;
10471;SDS011;5283;48.876;8.962;2022-11-20T04:13:59;7.60;;;6.00;;
10471;SDS011;5283;48.876;8.962;2022-11-20T04:16:31;10.33;;;6.27;;
10471;SDS011;5283;48.876;8.962;2022-11-20T04:19:01;9.67;;;6.80;;
10471;SDS011;5283;48.876;8.962;2022-11-20T04:21:30;9.63;;;6.83;;
10471;SDS011;5283;48.876;8.962;2022-11-20T04:23:56;9.50;;;7.03;;
10471;SDS011;5283;48.876;8.962;2022-11-20T04:26:24;11.20;;;7.40;;
10471;SDS011;5283;48.876;8.962;2022-11-20T04:28:52;12.53;;;7.47;;
10471;SDS011;5283;48.876;8.962;2022-11-20T04:31:20;8.63;;;6.70;;
10471;SDS011;5283;48.876;8.962;2022-11-20T04:33:48;9.63;;;6.60;;
10471;SDS011;5283;48.876;8.962;2022-11-20T04:36:16;8.40;;;7.00;;
10471;SDS011;5283;48.876;8.962;2022-11-20T04:38:45;8.07;;;6.80;;
10471;SDS011;5283;48.876;8.962;2022-11-20T04:41:16;12.03;;;6.80;;
10471;SDS011;5283;48.876;8.962;2022-11-20T04:43:48;11.93;;;6.50;;
10471;SDS011;5283;48.876;8.962;2022-11-20T04:46:16;8.50;;;6.27;;
10471;SDS011;5283;48.876;8.962;2022-11-20T04:48:43;9.73;;;6.30;;
10471;SDS011;5283;48.876;8.962;2022-11-20T04:51:10;8.87;;;6.23;;
10471;SDS011;5283;48.876;8.962;2022-11-20T04:53:37;7.87;;;6.43;;
10471;SDS011;5283;48.876;8.962;2022-11-20T04:56:05;9.90;;;6.27;;
10471;SDS011;5283;48.876;8.962;2022-11-20T04:58:33;8.23;;;6.27;;
10471;SDS011;5283;48.876;8.962;2022-11-20T05:01:04;8.77;;;6.10;;
10471;SDS011;5283;48.876;8.962;2022-11-20T05:03:39;8.37;;;6.17;;
10471;SDS011;5283;48.876;8.962;2022-11-20T05:06:07;7.13;;;6.40;;
10471;SDS011;5283;48.876;8.962;2022-11-20T05:08:35;7.83;;;6.33;;
10471;SDS011;5283;48.876;8.962;2022-11-20T05:11:03;7.63;;;6.20;;
10471;SDS011;5283;48.876;8.962;2022-11-20T05:13:31;7.43;;;6.07;;
10471;SDS011;5283;48.876;8.962;2022-11-20T05:16:02;7.27;;;6.30;;
10471;SDS011;5283;48.876;8.962;2022-11-20T05:18:30;8.97;;;5.60;;
10471;SDS011;5283;48.876;8.962;2022-11-20T05:20:57;7.30;;;5.80;;
10471;SDS011;5283;48.876;8.962;2022-11-20T05:23:24;8.77;;;5.90;;
10471;SDS011;5283;48.876;8.962;2022-11-20T05:25:52;9.57;;;5.50;;
10471;SDS011;5283;48.876;8.962;2022-11-20T05:28:23;9.27;;;6.20;;
10471;SDS011;5283;48.876;8.962;2022-11-20T05:30:50;6.87;;;5.57;;
10471;SDS011;5283;48.876;8.962;2022-11-20T05:33:17;7.50;;;5.73;;
10471;SDS011;5283;48.876;8.962;2022-11-20T05:35:45;7.03;;;5.20;;
10471;SDS011;5283;48.876;8.962;2022-11-20T05:38:11;6.83;;;5.07;;
10471;SDS011;5283;48.876;8.962;2022-11-20T05:40:38;7.80;;;5.80;;
10471;SDS011;5283;48.876;8.962;2022-11-20T05:43:05;5.70;;;5.07;;
10471;SDS011;5283;48.876;8.962;2022-11-20T05:45:32;6.23;;;4.90;;
10471;SDS011;5283;48.876;8.962;2022-11-20T05:47:59;5.60;;;4.80;;
10471;SDS011;5283;48.876;8.962;2022-11-20T05:50:29;6.10;;;4.90;;
10471;SDS011;5283;48.876;8.962;2022-11-20T05:52:59;5.03;;;4.53;;
10471;SDS011;5283;48.876;8.962;2022-11-20T05:55:26;6.13;;;4.77;;
10471;SDS011;5283;48.876;8.962;2022-11-20T05:57:54;6.77;;;4.77;;
10471;SDS011;5283;48.876;8.962;2022-11-20T06:00:21;6.00;;;4.67;;
10471;SDS011;5283;48.876;8.962;2022-11-20T06:02:48;5.30;;;4.23;;
10471;SDS011;5283;48.876;8.962;2022-11-20T06:05:15;5.07;;;4.10;;
10471;SDS011;5283;48.876;8.962;2022-11-20T06:07:42;5.30;;;4.33;;
10471;SDS011;5283;48.876;8.962;2022-11-20T06:10:09;6.43;;;3.83;;
10471;SDS011;5283;48.876;8.962;2022-11-20T06:12:36;4.47;;;3.60;;
10471;SDS011;5283;48.876;8.962;2022-11-20T06:15:04;5.03;;;4.17;;
10471;SDS011;5283;48.876;8.962;2022-11-20T06:17:31;4.43;;;3.70;;
10471;SDS011;5283;48.876;8.962;2022-11-20T06:19:58;3.87;;;3.47;;
10471;SDS011;5283;48.876;8.962;2022-11-20T06:22:24;4.27;;;3.43;;
10471;SDS011;5283;48.876;8.962;2022-11-20T06:24:51;3.90;;;3.37;;
10471;SDS011;5283;48.876;8.962;2022-11-20T06:27:18;5.50;;;3.40;;
10471;SDS011;5283;48.876;8.962;2022-11-20T06:29:44;5.13;;;2.90;;
10471;SDS011;5283;48.876;8.962;2022-11-20T06:32:11;3.17;;;2.70;;
10471;SDS011;5283;48.876;8.962;2022-11-20T06:34:38;2.93;;;2.70;;
10471;SDS011;5283;48.876;8.962;2022-11-20T06:37:05;3.17;;;2.90;;
10471;SDS011;5283;48.876;8.962;2022-11-20T06:39:31;2.83;;;2.53;;
10471;SDS011;5283;48.876;8.962;2022-11-20T06:41:58;5.20;;;2.73;;
10471;SDS011;5283;48.876;8.962;2022-11-20T06:44:25;2.67;;;2.43;;
10471;SDS011;5283;48.876;8.962;2022-11-20T06:46:52;5.17;;;2.70;;
10471;SDS011;5283;48.876;8.962;2022-11-20T06:49:18;3.07;;;2.50;;
10471;SDS011;5283;48.876;8.962;2022-11-20T06:51:45;2.70;;;2.50;;
10471;SDS011;5283;48.876;8.962;2022-11-20T06:54:12;3.17;;;2.53;;
10471;SDS011;5283;48.876;8.962;2022-11-20T06:56:39;2.00;;;1.87;;
10471;SDS011;5283;48.876;8.962;2022-11-20T06:59:07;4.07;;;2.50;;
10471;SDS011;5283;48.876;8.962;2022-11-20T07:01:34;2.30;;;2.10;;
10471;SDS011;5283;48.876;8.962;2022-11-20T07:04:01;4.47;;;2.00;;
10471;SDS011;5283;48.876;8.962;2022-11-20T07:06:29;2.10;;;1.90;;
10471;SDS011;5283;48.876;8.962;2022-11-20T07:08:56;4.00;;;2.20;;
10471;SDS011;5283;48.876;8.962;2022-11-20T07:11:23;2.40;;;2.10;;
10471;SDS011;5283;48.876;8.962;2022-11-20T07:13:50;2.20;;;2.00;;
10471;SDS011;5283;48.876;8.962;2022-11-20T07:16:17;1.90;;;1.80;;
10471;SDS011;5283;48.876;8.962;2022-11-20T07:18:43;1.70;;;1.60;;
10471;SDS011;5283;48.876;8.962;2022-11-20T07:21:14;1.83;;;1.73;;
10471;SDS011;5283;48.876;8.962;2022-11-20T07:23:41;2.33;;;2.00;;
10471;SDS011;5283;48.876;8.962;2022-11-20T07:26:08;2.13;;;1.93;;
10471;SDS011;5283;48.876;8.962;2022-11-20T07:28:36;1.83;;;1.73;;
10471;SDS011;5283;48.876;8.962;2022-11-20T07:31:04;2.00;;;1.90;;
10471;SDS011;5283;48.876;8.962;2022-11-20T07:33:32;2.17;;;2.00;;
10471;SDS011;5283;48.876;8.962;2022-11-20T07:35:59;2.00;;;1.90;;
10471;SDS011;5283;48.876;8.962;2022-11-20T07:38:26;2.00;;;1.90;;
10471;SDS011;5283;48.876;8.962;2022-11-20T07:40:53;1.50;;;1.40;;
10471;SDS011;5283;48.876;8.962;2022-11-20T07:43:21;1.63;;;1.53;;
10471;SDS011;5283;48.876;8.962;2022-11-20T07:45:48;1.70;;;1.60;;
10471;SDS011;5283;48.876;8.962;2022-11-20T07:48:15;2.23;;;1.80;;
10471;SDS011;5283;48.876;8.962;2022-11-20T07:50:41;1.70;;;1.60;;
10471;SDS011;5283;48.876;8.962;2022-11-20T07:53:08;2.83;;;1.63;;
10471;SDS011;5283;48.876;8.962;2022-11-20T07:55:35;1.63;;;1.50;;
10471;SDS011;5283;48.876;8.962;2022-11-20T07:58:02;4.83;;;1.53;;
10471;SDS011;5283;48.876;8.962;2022-11-20T08:00:28;1.70;;;1.00;;
10471;SDS011;5283;48.876;8.962;2022-11-20T08:02:55;0.70;;;0.70;;
10471;SDS011;5283;48.876;8.962;2022-11-20T08:05:22;2.00;;;0.90;;
10471;SDS011;5283;48.876;8.962;2022-11-20T08:07:49;2.30;;;0.97;;
10471;SDS011;5283;48.876;8.962;2022-11-20T08:10:16;0.67;;;0.67;;
10471;SDS011;5283;48.876;8.962;2022-11-20T08:12:43;1.03;;;0.80;;
10471;SDS011;5283;48.876;8.962;2022-11-20T08:15:30;0.50;;;0.50;;
10471;SDS011;5283;48.876;8.962;2022-11-20T08:18:04;0.70;;;0.60;;
10471;SDS011;5283;48.876;8.962;2022-11-20T08:20:51;2.43;;;0.60;;
10471;SDS011;5283;48.876;8.962;2022-11-20T08:23:18;0.53;;;0.53;;
10471;SDS011;5283;48.876;8.962;2022-11-20T08:25:48;0.40;;;0.40;;
10471;SDS011;5283;48.876;8.962;2022-11-20T08:28:16;1.03;;;0.60;;
10471;SDS011;5283;48.876;8.962;2022-11-20T08:30:45;2.00;;;0.53;;
10471;SDS011;5283;48.876;8.962;2022-11-20T08:33:12;0.40;;;0.40;;
10471;SDS011;5283;48.876;8.962;2022-11-20T08:35:39;0.63;;;0.50;;
10471;SDS011;5283;48.876;8.962;2022-11-20T08:38:07;1.73;;;0.60;;
10471;SDS011;5283;48.876;8.962;2022-11-20T08:40:35;0.67;;;0.50;;
10471;SDS011;5283;48.876;8.962;2022-11-20T08:43:01;0.40;;;0.40;;
10471;SDS011;5283;48.876;8.962;2022-11-20T08:45:28;0.60;;;0.60;;
10471;SDS011;5283;48.876;8.962;2022-11-20T08:48:02;0.30;;;0.30;;
10471;SDS011;5283;48.876;8.962;2022-11-20T08:50:29;0.40;;;0.40;;
10471;SDS011;5283;48.876;8.962;2022-11-20T08:53:02;1.27;;;0.70;;
10471;SDS011;5283;48.876;8.962;2022-11-20T08:55:29;0.60;;;0.60;;
10471;SDS011;5283;48.876;8.962;2022-11-20T08:57:56;1.17;;;0.50;;
10471;SDS011;5283;48.876;8.962;2022-11-20T09:00:23;0.57;;;0.57;;
10471;SDS011;5283;48.876;8.962;2022-11-20T09:02:49;0.70;;;0.70;;
10471;SDS011;5283;48.876;8.962;2022-11-20T09:05:16;0.50;;;0.50;;
10471;SDS011;5283;48.876;8.962;2022-11-20T09:07:43;0.77;;;0.60;;
10471;SDS011;5283;48.876;8.962;2022-11-20T09:10:09;0.70;;;0.70;;
10471;SDS011;5283;48.876;8.962;2022-11-20T09:12:48;0.83;;;0.60;;
10471;SDS011;5283;48.876;8.962;2022-11-20T09:15:15;0.67;;;0.60;;
10471;SDS011;5283;48.876;8.962;2022-11-20T09:17:42;0.50;;;0.47;;
10471;SDS011;5283;48.876;8.962;2022-11-20T09:20:16;0.67;;;0.67;;
10471;SDS011;5283;48.876;8.962;2022-11-20T09:22:42;1.00;;;0.60;;
10471;SDS011;5283;48.876;8.962;2022-11-20T09:25:09;1.20;;;0.67;;
10471;SDS011;5283;48.876;8.962;2022-11-20T09:27:36;0.70;;;0.70;;
10471;SDS011;5283;48.876;8.962;2022-11-20T09:30:03;1.47;;;0.80;;
10471;SDS011;5283;48.876;8.962;2022-11-20T09:32:30;0.80;;;0.53;;
10471;SDS011;5283;48.876;8.962;2022-11-20T09:34:57;0.77;;;0.77;;
10471;SDS011;5283;48.876;8.962;2022-11-20T09:37:29;1.27;;;0.90;;
10471;SDS011;5283;48.876;8.962;2022-11-20T09:39:55;0.97;;;0.80;;
10471;SDS011;5283;48.876;8.962;2022-11-20T09:45:14;2.00;;;1.20;;
10471;SDS011;5283;48.876;8.962;2022-11-20T09:51:05;2.17;;;1.97;;
10471;SDS011;5283;48.876;8.962;2022-11-20T09:56:52;2.80;;;2.50;;
10471;SDS011;5283;48.876;8.962;2022-11-20T10:01:56;2.87;;;2.40;;
10471;SDS011;5283;48.876;8.962;2022-11-20T10:04:25;2.43;;;2.23;;
10471;SDS011;5283;48.876;8.962;2022-11-20T10:07:05;2.40;;;2.20;;
10471;SDS011;5283;48.876;8.962;2022-11-20T10:09:54;1.97;;;1.20;;
10471;SDS011;5283;48.876;8.962;2022-11-20T10:12:35;1.73;;;1.63;;
10471;SDS011;5283;48.876;8.962;2022-11-20T10:18:00;1.07;;;0.97;;
10471;SDS011;5283;48.876;8.962;2022-11-20T10:29:16;1.00;;;1.00;;
10471;SDS011;5283;48.876;8.962;2022-11-20T10:31:45;0.87;;;0.87;;
10471;SDS011;5283;48.876;8.962;2022-11-20T10:34:21;1.30;;;1.30;;
10471;SDS011;5283;48.876;8.962;2022-11-20T10:37:06;2.07;;;1.97;;
10471;SDS011;5283;48.876;8.962;2022-11-20T10:39:47;2.40;;;2.20;;
10471;SDS011;5283;48.876;8.962;2022-11-20T10:42:22;2.37;;;2.17;;
10471;SDS011;5283;48.876;8.962;2022-11-20T10:47:50;3.23;;;2.40;;
10471;SDS011;5283;48.876;8.962;2022-11-20T10:50:20;3.80;;;2.70;;
10471;SDS011;5283;48.876;8.962;2022-11-20T10:52:56;3.97;;;2.60;;
10471;SDS011;5283;48.876;8.962;2022-11-20T11:01:54;3.00;;;2.43;;
10471;SDS011;5283;48.876;8.962;2022-11-20T11:04:28;2.60;;;2.40;;
10471;SDS011;5283;48.876;8.962;2022-11-20T11:07:12;2.67;;;2.40;;
10471;SDS011;5283;48.876;8.962;2022-11-20T11:09:54;3.77;;;2.30;;
10471;SDS011;5283;48.876;8.962;2022-11-20T11:12:23;3.03;;;2.13;;
10471;SDS011;5283;48.876;8.962;2022-11-20T11:14:52;2.33;;;2.13;;
10471;SDS011;5283;48.876;8.962;2022-11-20T11:17:27;2.67;;;2.20;;
10471;SDS011;5283;48.876;8.962;2022-11-20T11:20:03;4.07;;;2.27;;
10471;SDS011;5283;48.876;8.962;2022-11-20T11:22:32;2.60;;;2.40;;
10471;SDS011;5283;48.876;8.962;2022-11-20T11:25:00;5.27;;;2.40;;
10471;SDS011;5283;48.876;8.962;2022-11-20T11:27:27;6.37;;;2.47;;
10471;SDS011;5283;48.876;8.962;2022-11-20T11:33:01;1.87;;;1.70;;
10471;SDS011;5283;48.876;8.962;2022-11-20T11:35:30;2.57;;;1.73;;
10471;SDS011;5283;48.876;8.962;2022-11-20T11:38:07;2.30;;;1.83;;
10471;SDS011;5283;48.876;8.962;2022-11-20T11:40:40;2.07;;;1.70;;
10471;SDS011;5283;48.876;8.962;2022-11-20T11:43:16;2.63;;;1.73;;
10471;SDS011;5283;48.876;8.962;2022-11-20T11:46:06;4.47;;;1.53;;
10471;SDS011;5283;48.876;8.962;2022-11-20T11:51:39;3.20;;;1.80;;
10471;SDS011;5283;48.876;8.962;2022-11-20T11:55:00;2.13;;;1.40;;
10471;SDS011;5283;48.876;8.962;2022-11-20T11:57:05;3.70;;;1.20;;
10471;SDS011;5283;48.876;8.962;2022-11-20T12:00:13;3.37;;;1.63;;
10471;SDS011;5283;48.876;8.962;2022-11-20T12:02:57;2.77;;;1.20;;
10471;SDS011;5283;48.876;8.962;2022-11-20T12:05:38;2.47;;;1.30;;
10471;SDS011;5283;48.876;8.962;2022-11-20T12:08:32;3.53;;;1.50;;
10471;SDS011;5283;48.876;8.962;2022-11-20T12:11:05;3.50;;;1.30;;
10471;SDS011;5283;48.876;8.962;2022-11-20T12:13:40;3.67;;;1.20;;
10471;SDS011;5283;48.876;8.962;2022-11-20T12:16:14;1.73;;;1.00;;
10471;SDS011;5283;48.876;8.962;2022-11-20T12:18:43;1.23;;;1.00;;
10471;SDS011;5283;48.876;8.962;2022-11-20T12:21:18;2.83;;;1.30;;
10471;SDS011;5283;48.876;8.962;2022-11-20T12:26:27;1.53;;;1.07;;
10471;SDS011;5283;48.876;8.962;2022-11-20T12:31:52;2.13;;;0.90;;
10471;SDS011;5283;48.876;8.962;2022-11-20T12:40:43;2.10;;;0.87;;
10471;SDS011;5283;48.876;8.962;2022-11-20T12:43:34;2.00;;;1.00;;
10471;SDS011;5283;48.876;8.962;2022-11-20T12:46:36;2.53;;;1.00;;
10471;SDS011;5283;48.876;8.962;2022-11-20T12:58:00;1.27;;;1.00;;
10471;SDS011;5283;48.876;8.962;2022-11-20T13:00:56;1.83;;;1.03;;
10471;SDS011;5283;48.876;8.962;2022-11-20T13:04:14;2.57;;;1.17;;
10471;SDS011;5283;48.876;8.962;2022-11-20T13:07:02;3.40;;;0.90;;
10471;SDS011;5283;48.876;8.962;2022-11-20T13:09:32;2.93;;;0.83;;
10471;SDS011;5283;48.876;8.962;2022-11-20T13:12:13;2.43;;;1.00;;
10471;SDS011;5283;48.876;8.962;2022-11-20T13:14:53;2.80;;;1.13;;
10471;SDS011;5283;48.876;8.962;2022-11-20T13:17:35;0.77;;;0.77;;
10471;SDS011;5283;48.876;8.962;2022-11-20T13:20:22;2.50;;;1.00;;
10471;SDS011;5283;48.876;8.962;2022-11-20T13:22:50;2.33;;;1.10;;
10471;SDS011;5283;48.876;8.962;2022-11-20T13:25:37;1.27;;;0.70;;
10471;SDS011;5283;48.876;8.962;2022-11-20T13:30:35;3.00;;;0.87;;
10471;SDS011;5283;48.876;8.962;2022-11-20T13:33:25;2.90;;;0.60;;
10471;SDS011;5283;48.876;8.962;2022-11-20T13:35:58;1.60;;;0.97;;
10471;SDS011;5283;48.876;8.962;2022-11-20T13:38:46;2.37;;;0.80;;
10471;SDS011;5283;48.876;8.962;2022-11-20T13:41:25;2.70;;;0.90;;
10471;SDS011;5283;48.876;8.962;2022-11-20T13:44:13;2.27;;;1.00;;
10471;SDS011;5283;48.876;8.962;2022-11-20T13:46:49;1.30;;;0.80;;
10471;SDS011;5283;48.876;8.962;2022-11-20T13:49:17;1.93;;;0.90;;
10471;SDS011;5283;48.876;8.962;2022-11-20T13:51:50;2.23;;;1.00;;
10471;SDS011;5283;48.876;8.962;2022-11-20T14:00:16;1.83;;;0.67;;
10471;SDS011;5283;48.876;8.962;2022-11-20T14:05:37;1.53;;;0.83;;
10471;SDS011;5283;48.876;8.962;2022-11-20T14:08:10;3.10;;;1.20;;
10471;SDS011;5283;48.876;8.962;2022-11-20T14:10:46;3.03;;;1.10;;
10471;SDS011;5283;48.876;8.962;2022-11-20T14:13:17;3.50;;;1.07;;
10471;SDS011;5283;48.876;8.962;2022-11-20T14:15:46;1.60;;;0.70;;
10471;SDS011;5283;48.876;8.962;2022-11-20T14:18:14;1.53;;;1.10;;
10471;SDS011;5283;48.876;8.962;2022-11-20T14:20:46;3.27;;;0.97;;
10471;SDS011;5283;48.876;8.962;2022-11-20T14:23:22;3.80;;;1.00;;
10471;SDS011;5283;48.876;8.962;2022-11-20T14:25:55;2.40;;;1.00;;
10471;SDS011;5283;48.876;8.962;2022-11-20T14:28:26;1.43;;;0.80;;
10471;SDS011;5283;48.876;8.962;2022-11-20T14:30:55;0.90;;;0.70;;
10471;SDS011;5283;48.876;8.962;2022-11-20T14:33:23;2.03;;;0.93;;
10471;SDS011;5283;48.876;8.962;2022-11-20T14:35:53;4.03;;;1.13;;
10471;SDS011;5283;48.876;8.962;2022-11-20T14:38:24;1.43;;;0.80;;
10471;SDS011;5283;48.876;8.962;2022-11-20T14:40:53;2.20;;;0.70;;
10471;SDS011;5283;48.876;8.962;2022-11-20T14:43:21;2.50;;;0.80;;
10471;SDS011;5283;48.876;8.962;2022-11-20T14:45:52;0.80;;;0.80;;
10471;SDS011;5283;48.876;8.962;2022-11-20T14:48:31;2.40;;;1.30;;
10471;SDS011;5283;48.876;8.962;2022-11-20T14:51:12;1.37;;;0.90;;
10471;SDS011;5283;48.876;8.962;2022-11-20T14:53:51;1.83;;;0.83;;
10471;SDS011;5283;48.876;8.962;2022-11-20T14:56:22;3.23;;;1.40;;
10471;SDS011;5283;48.876;8.962;2022-11-20T14:58:58;2.40;;;1.03;;
10471;SDS011;5283;48.876;8.962;2022-11-20T15:01:29;1.20;;;0.87;;
10471;SDS011;5283;48.876;8.962;2022-11-20T15:03:59;1.63;;;0.80;;
10471;SDS011;5283;48.876;8.962;2022-11-20T15:06:32;1.37;;;0.83;;
10471;SDS011;5283;48.876;8.962;2022-11-20T15:08:59;3.17;;;0.80;;
10471;SDS011;5283;48.876;8.962;2022-11-20T15:11:28;1.70;;;1.10;;
10471;SDS011;5283;48.876;8.962;2022-11-20T15:13:56;1.17;;;0.80;;
10471;SDS011;5283;48.876;8.962;2022-11-20T15:16:24;1.10;;;0.60;;
10471;SDS011;5283;48.876;8.962;2022-11-20T15:18:52;1.23;;;0.60;;
10471;SDS011;5283;48.876;8.962;2022-11-20T15:21:20;0.97;;;0.70;;
10471;SDS011;5283;48.876;8.962;2022-11-20T15:23:47;4.00;;;1.10;;
10471;SDS011;5283;48.876;8.962;2022-11-20T15:26:20;0.80;;;0.70;;
10471;SDS011;5283;48.876;8.962;2022-11-20T15:28:52;3.87;;;1.20;;
10471;SDS011;5283;48.876;8.962;2022-11-20T15:31:20;1.23;;;0.83;;
10471;SDS011;5283;48.876;8.962;2022-11-20T15:33:48;1.60;;;0.97;;
10471;SDS011;5283;48.876;8.962;2022-11-20T15:36:16;1.83;;;0.90;;
10471;SDS011;5283;48.876;8.962;2022-11-20T15:38:43;2.03;;;1.10;;
10471;SDS011;5283;48.876;8.962;2022-11-20T15:41:10;1.23;;;0.90;;
10471;SDS011;5283;48.876;8.962;2022-11-20T15:43:37;2.70;;;1.07;;
10471;SDS011;5283;48.876;8.962;2022-11-20T15:48:35;2.50;;;1.07;;
10471;SDS011;5283;48.876;8.962;2022-11-20T15:53:39;1.13;;;1.00;;
10471;SDS011;5283;48.876;8.962;2022-11-20T15:56:13;3.13;;;1.50;;
10471;SDS011;5283;48.876;8.962;2022-11-20T15:58:40;1.03;;;0.97;;
10471;SDS011;5283;48.876;8.962;2022-11-20T16:01:11;2.03;;;0.83;;
10471;SDS011;5283;48.876;8.962;2022-11-20T16:03:39;1.60;;;1.00;;
10471;SDS011;5283;48.876;8.962;2022-11-20T16:06:06;2.37;;;1.10;;
10471;SDS011;5283;48.876;8.962;2022-11-20T16:08:33;1.73;;;1.10;;
10471;SDS011;5283;48.876;8.962;2022-11-20T16:11:00;1.90;;;1.13;;
10471;SDS011;5283;48.876;8.962;2022-11-20T16:13:27;5.07;;;1.20;;
10471;SDS011;5283;48.876;8.962;2022-11-20T16:16:22;2.47;;;1.47;;
10471;SDS011;5283;48.876;8.962;2022-11-20T16:18:54;1.30;;;1.20;;
10471;SDS011;5283;48.876;8.962;2022-11-20T16:21:21;2.03;;;1.00;;
10471;SDS011;5283;48.876;8.962;2022-11-20T16:23:53;1.87;;;1.00;;
10471;SDS011;5283;48.876;8.962;2022-11-20T16:26:20;2.70;;;1.10;;
10471;SDS011;5283;48.876;8.962;2022-11-20T16:28:47;1.27;;;0.97;;
10471;SDS011;5283;48.876;8.962;2022-11-20T16:31:14;0.90;;;0.90;;
10471;SDS011;5283;48.876;8.962;2022-11-20T16:33:42;1.53;;;1.00;;
10471;SDS011;5283;48.876;8.962;2022-11-20T16:36:14;4.10;;;1.27;;
10471;SDS011;5283;48.876;8.962;2022-11-20T16:38:41;3.37;;;1.60;;